Accueil
METAR-TAF:

METAR-TAF

Aéroports :

Plate-forme pétrolière

P11-b, Pays-Bas

latitude: 52-21-36N, longitude: 3-20-30E, altitude: 24 m

Observation

Le bulletin a été fait il y a 12 minutes, à 07:25 UTC
Vent 7 kt de nord-est
Température 16°C
Humidité 68%
Pression 1014 hPa
Visibilité 10 km ou plus
Quelques nuages à une hauteur de 2200 ft
Nuages épars à une hauteur de 2500 ft

METAR: EHPG 030725Z AUTO 04007KT 9999 FEW022 SCT025 16/10 Q1014

Heure: 09:37 (07:37 UTC)


TAF: absent

Observations et prévisions météorologiques de plus de 4000 aéroports (messages METAR et TAF).

Les stations disponibles sont représentées par des disques jaunes et rouges sur la carte.

Passer la souris dessus pour voir le nom de la station.

Cliquer dessus pour voir les observations et prévisions météorologiques.

Pour changer de carte: cliquez sur les boutons verts avec une croix noire pour zoomer, sur le bouton vert avec un tiret pour effectuer un zoom arrière, ou sur les flèches vertes pour les cartes adjacentes.


METAR-TAF: